Time;durP1;ratioP1;P1;durP2;ratioP2;P2;SDS_P1;SDS_P2;PMS_P1;PMS_P2;Temp;Humidity;BMP_temperature;BMP_pressure;BME280_temperature;BME280_humidity;BME280_pressure;Samples;Min_cycle;Max_cycle;Signal;HPM_P1;HPM_P2
2022/03/03 00:01:20;;;;;;;62.50;22.00;;;1.70;26.10;;;;;;5064370;28;20509;-65
2022/03/03 00:03:47;;;;;;;58.73;20.67;;;1.60;25.90;;;;;;5068248;28;20457;-66
2022/03/03 00:06:14;;;;;;;58.07;21.20;;;1.70;26.10;;;;;;5068311;28;20476;-65
2022/03/03 00:08:41;;;;;;;58.80;20.53;;;1.70;26.20;;;;;;5067021;28;20462;-65
2022/03/03 00:11:07;;;;;;;64.00;21.27;;;1.60;25.90;;;;;;5068883;28;21035;-67
2022/03/03 00:13:34;;;;;;;59.57;20.97;;;1.60;26.20;;;;;;5066569;28;20469;-66
2022/03/03 00:16:05;;;;;;;57.57;19.90;;;1.60;26.20;;;;;;5068483;28;20480;-66
2022/03/03 00:18:32;;;;;;;57.80;22.00;;;1.60;26.00;;;;;;5068112;28;20800;-66
2022/03/03 00:20:59;;;;;;;59.10;20.70;;;1.60;26.10;;;;;;5069029;28;20467;-65
2022/03/03 00:23:26;;;;;;;58.37;19.60;;;1.60;26.00;;;;;;5066495;28;20468;-67
2022/03/03 00:25:52;;;;;;;58.97;21.33;;;1.60;26.10;;;;;;5067639;28;20988;-66
2022/03/03 00:28:19;;;;;;;61.37;20.03;;;1.60;26.10;;;;;;5068325;28;20572;-66
2022/03/03 00:30:46;;;;;;;60.93;22.03;;;1.50;26.20;;;;;;5067407;28;20468;-64
2022/03/03 00:33:14;;;;;;;59.50;22.20;;;1.50;26.20;;;;;;5066342;28;20461;-65
2022/03/03 00:35:41;;;;;;;65.43;23.00;;;1.50;26.40;;;;;;5067480;28;20477;-67
2022/03/03 00:38:09;;;;;;;58.67;20.40;;;1.50;26.30;;;;;;5068110;28;20477;-66
2022/03/03 00:40:37;;;;;;;57.53;21.53;;;1.40;26.40;;;;;;5067449;28;20623;-65
2022/03/03 00:43:04;;;;;;;62.50;22.03;;;1.40;26.60;;;;;;5065949;28;22903;-66
2022/03/03 00:45:30;;;;;;;59.27;21.47;;;1.30;26.60;;;;;;5067059;28;20847;-66
2022/03/03 00:47:57;;;;;;;61.33;22.73;;;1.30;26.40;;;;;;5068990;28;20460;-66
2022/03/03 00:50:26;;;;;;;58.93;21.40;;;1.30;26.30;;;;;;5068247;28;20467;-66
2022/03/03 00:52:52;;;;;;;57.43;21.10;;;1.30;26.40;;;;;;5066972;28;20468;-66
2022/03/03 00:55:19;;;;;;;55.93;21.00;;;1.20;26.50;;;;;;5064780;28;20965;-66
2022/03/03 00:57:46;;;;;;;61.43;22.37;;;1.20;26.80;;;;;;5067391;28;20487;-66
2022/03/03 01:00:13;;;;;;;64.43;20.30;;;1.20;26.90;;;;;;5066859;28;20957;-67
2022/03/03 01:02:40;;;;;;;63.43;21.60;;;1.10;27.00;;;;;;5066970;28;20463;-66
2022/03/03 01:05:08;;;;;;;62.27;21.27;;;1.10;27.40;;;;;;5066114;28;20471;-66
2022/03/03 01:07:36;;;;;;;59.00;22.47;;;1.10;27.50;;;;;;5065944;28;20830;-68
2022/03/03 01:10:04;;;;;;;59.37;22.13;;;1.00;27.50;;;;;;5067739;28;20467;-66
2022/03/03 01:12:31;;;;;;;66.00;22.73;;;1.00;27.70;;;;;;5067222;28;20469;-64
2022/03/03 01:14:58;;;;;;;63.33;21.23;;;0.90;27.90;;;;;;5066503;28;20465;-67
2022/03/03 01:17:25;;;;;;;62.37;22.23;;;0.90;28.40;;;;;;5067097;28;20771;-66
2022/03/03 01:19:52;;;;;;;61.93;22.70;;;0.90;28.70;;;;;;5067476;28;20457;-65
2022/03/03 01:22:19;;;;;;;65.47;21.47;;;0.80;28.70;;;;;;5067203;28;20957;-65
2022/03/03 01:24:47;;;;;;;63.03;23.90;;;0.80;28.60;;;;;;5067534;28;20457;-68
2022/03/03 01:27:14;;;;;;;62.47;23.27;;;0.80;28.60;;;;;;5066013;28;20484;-66
2022/03/03 01:29:41;;;;;;;65.90;23.00;;;0.80;28.50;;;;;;5065661;28;20460;-65
2022/03/03 01:32:09;;;;;;;61.97;22.67;;;0.80;28.20;;;;;;5063197;28;20468;-64
2022/03/03 01:34:36;;;;;;;61.17;20.23;;;0.80;28.10;;;;;;5066370;28;20468;-65
2022/03/03 01:37:03;;;;;;;61.37;22.53;;;0.80;28.70;;;;;;5065386;28;20576;-65
2022/03/03 01:39:29;;;;;;;63.53;24.37;;;0.80;28.80;;;;;;5066930;28;20467;-65
2022/03/03 01:41:57;;;;;;;61.07;22.43;;;0.80;28.60;;;;;;5066444;28;21038;-65
2022/03/03 01:44:25;;;;;;;63.23;22.43;;;0.80;29.10;;;;;;5066377;28;20456;-65
2022/03/03 01:46:53;;;;;;;60.27;23.23;;;0.80;28.40;;;;;;5065564;28;20488;-66
2022/03/03 01:49:21;;;;;;;60.90;23.27;;;0.70;28.30;;;;;;5066693;28;20497;-67
2022/03/03 01:51:47;;;;;;;59.27;21.40;;;0.70;28.30;;;;;;5066898;28;20772;-65
2022/03/03 01:54:15;;;;;;;58.70;21.33;;;0.70;28.30;;;;;;5066771;28;20453;-65
2022/03/03 01:56:42;;;;;;;64.83;21.97;;;0.70;28.40;;;;;;5066598;28;20481;-66
2022/03/03 01:59:11;;;;;;;63.47;22.70;;;0.70;28.60;;;;;;5070684;28;20463;-65
2022/03/03 02:01:38;;;;;;;60.33;21.63;;;0.60;28.60;;;;;;5069593;28;20999;-65
2022/03/03 02:04:07;;;;;;;57.67;20.77;;;0.60;28.70;;;;;;5070859;28;20457;-66
2022/03/03 02:06:34;;;;;;;60.77;23.43;;;0.60;29.00;;;;;;5069582;28;20559;-65
2022/03/03 02:09:01;;;;;;;58.47;20.97;;;0.60;28.70;;;;;;5069987;28;20955;-65
2022/03/03 02:11:30;;;;;;;66.73;21.87;;;0.60;28.80;;;;;;5070844;28;20574;-66
2022/03/03 02:13:56;;;;;;;61.50;21.20;;;0.50;28.70;;;;;;5070494;28;20457;-65
2022/03/03 02:16:25;;;;;;;62.70;21.57;;;0.50;28.90;;;;;;5069061;28;20481;-65
2022/03/03 02:18:52;;;;;;;61.90;22.57;;;0.50;29.00;;;;;;5068838;28;20465;-65
2022/03/03 02:21:20;;;;;;;58.07;20.83;;;0.50;29.00;;;;;;5070546;28;20493;-66
2022/03/03 02:23:47;;;;;;;58.97;22.40;;;0.50;29.10;;;;;;5070050;28;20540;-66
2022/03/03 02:26:19;;;;;;;59.30;21.63;;;0.50;29.00;;;;;;5069130;28;21040;-66
2022/03/03 02:28:47;;;;;;;61.20;21.53;;;0.50;28.90;;;;;;5069361;28;20461;-67
2022/03/03 02:31:14;;;;;;;63.87;23.30;;;0.50;28.80;;;;;;5067341;28;20473;-65
2022/03/03 02:33:40;;;;;;;63.67;23.57;;;0.40;28.90;;;;;;5070592;28;20468;-64
2022/03/03 02:36:18;;;;;;;61.97;23.50;;;0.40;29.30;;;;;;5068572;28;20477;-66
2022/03/03 02:38:47;;;;;;;65.37;23.27;;;0.40;29.50;;;;;;5070079;28;20477;-64
2022/03/03 02:41:14;;;;;;;62.27;22.20;;;0.40;29.80;;;;;;5069761;28;20550;-65
2022/03/03 02:43:42;;;;;;;60.77;22.77;;;0.30;29.70;;;;;;5070517;28;20460;-65
2022/03/03 02:46:09;;;;;;;61.77;22.70;;;0.30;29.80;;;;;;5068900;28;20527;-68
2022/03/03 02:48:37;;;;;;;61.10;21.90;;;0.30;29.60;;;;;;5069588;28;20851;-65
2022/03/03 02:51:04;;;;;;;58.67;20.50;;;0.30;30.10;;;;;;5069386;28;20464;-66
2022/03/03 02:53:31;;;;;;;62.30;23.90;;;0.30;29.60;;;;;;5069223;28;20543;-66
2022/03/03 02:56:00;;;;;;;58.10;21.90;;;0.20;29.50;;;;;;5069018;28;20563;-68
2022/03/03 02:58:27;;;;;;;60.47;21.93;;;0.20;29.60;;;;;;5070040;28;20487;-67
2022/03/03 03:00:54;;;;;;;61.13;22.13;;;0.20;29.50;;;;;;5067741;28;21008;-65
2022/03/03 03:03:20;;;;;;;65.30;22.93;;;0.20;29.30;;;;;;5069417;28;20461;-66
2022/03/03 03:05:48;;;;;;;62.90;21.77;;;0.20;29.40;;;;;;5067549;28;20477;-65
2022/03/03 03:08:15;;;;;;;79.40;21.63;;;0.10;29.50;;;;;;5068410;28;20938;-67
2022/03/03 03:10:43;;;;;;;63.27;22.80;;;0.10;29.50;;;;;;5067848;28;20453;-65
2022/03/03 03:13:14;;;;;;;62.37;22.77;;;0.10;29.70;;;;;;5069913;28;20460;-65
2022/03/03 03:15:42;;;;;;;64.03;21.80;;;0.10;30.00;;;;;;5068703;28;20855;-67
2022/03/03 03:18:09;;;;;;;58.30;20.60;;;0.10;30.80;;;;;;5048856;28;20482;-67
2022/03/03 03:20:36;;;;;;;61.37;21.20;;;0.10;30.90;;;;;;5052308;28;20473;-65
2022/03/03 03:23:04;;;;;;;62.87;21.43;;;0.10;30.70;;;;;;5068845;28;20457;-65
2022/03/03 03:25:31;;;;;;;61.10;21.40;;;0.10;30.70;;;;;;5068229;28;21146;-65
2022/03/03 03:27:57;;;;;;;60.17;21.00;;;0.00;30.60;;;;;;5069496;28;20567;-65
2022/03/03 03:30:26;;;;;;;59.50;21.20;;;0.00;30.60;;;;;;5068275;28;20953;-67
2022/03/03 03:32:53;;;;;;;67.17;22.80;;;0.00;30.90;;;;;;5067644;28;20831;-65
2022/03/03 03:35:19;;;;;;;63.70;22.90;;;0.00;31.10;;;;;;5068966;28;20453;-64
2022/03/03 03:37:46;;;;;;;61.50;23.53;;;0.10;31.20;;;;;;5068550;28;20484;-65
2022/03/03 03:40:13;;;;;;;62.63;23.80;;;0.10;31.30;;;;;;5068408;28;20457;-67
2022/03/03 03:42:40;;;;;;;61.10;21.70;;;0.10;31.20;;;;;;5066418;28;20522;-66
2022/03/03 03:45:08;;;;;;;60.30;21.60;;;0.20;31.20;;;;;;5067282;28;20884;-67
2022/03/03 03:47:37;;;;;;;61.90;23.73;;;0.20;30.90;;;;;;5066660;28;20457;-64
2022/03/03 03:50:05;;;;;;;61.47;22.37;;;0.20;31.10;;;;;;5067755;28;20496;-66
2022/03/03 03:52:32;;;;;;;61.73;22.00;;;0.20;31.10;;;;;;5068462;28;20457;-65
2022/03/03 03:54:59;;;;;;;63.77;20.90;;;0.20;30.70;;;;;;5067146;28;20461;-65
2022/03/03 03:57:26;;;;;;;62.07;23.23;;;0.20;30.40;;;;;;5068483;28;21052;-65
2022/03/03 03:59:53;;;;;;;64.87;20.80;;;0.10;30.40;;;;;;5067696;28;20457;-67
2022/03/03 04:02:20;;;;;;;64.13;22.37;;;0.10;30.60;;;;;;5066829;28;20481;-67
2022/03/03 04:04:48;;;;;;;58.60;21.40;;;0.00;30.60;;;;;;5066284;28;20456;-67
2022/03/03 04:07:15;;;;;;;64.20;24.10;;;0.00;30.50;;;;;;5047639;28;21053;-66
2022/03/03 04:09:41;;;;;;;64.67;22.90;;;0.00;30.60;;;;;;5048233;28;20458;-66
2022/03/03 04:12:09;;;;;;;66.33;22.77;;;0.00;30.50;;;;;;5047715;28;20469;-68
2022/03/03 04:14:36;;;;;;;58.73;21.20;;;-0.10;30.70;;;;;;5049730;28;20469;-66
2022/03/03 04:17:03;;;;;;;60.80;19.20;;;-0.10;30.60;;;;;;5067108;28;20481;-65
2022/03/03 04:19:30;;;;;;;62.93;22.20;;;-0.20;30.50;;;;;;5068595;28;20457;-66
2022/03/03 04:21:58;;;;;;;61.73;22.07;;;-0.20;30.50;;;;;;5067667;28;20468;-67
2022/03/03 04:24:25;;;;;;;64.57;24.13;;;-0.20;30.60;;;;;;5069055;28;20941;-65
2022/03/03 04:26:52;;;;;;;59.60;20.13;;;-0.30;30.70;;;;;;5065577;28;20481;-66
2022/03/03 04:29:18;;;;;;;59.00;20.40;;;-0.30;30.80;;;;;;5067967;28;20445;-65
2022/03/03 04:31:45;;;;;;;59.63;20.87;;;-0.40;30.80;;;;;;5066137;28;20484;-65
2022/03/03 04:34:12;;;;;;;57.60;20.33;;;-0.40;31.00;;;;;;5068959;28;21051;-66
2022/03/03 04:36:39;;;;;;;60.90;22.10;;;-0.40;30.90;;;;;;5067414;28;20488;-65
2022/03/03 04:39:07;;;;;;;59.50;22.20;;;-0.50;31.00;;;;;;5066930;28;20477;-64
2022/03/03 04:41:34;;;;;;;61.10;22.50;;;-0.50;31.10;;;;;;5067614;28;20453;-65
2022/03/03 04:44:00;;;;;;;67.87;23.13;;;-0.50;31.10;;;;;;5067599;28;20457;-65
2022/03/03 04:46:27;;;;;;;59.37;22.63;;;-0.50;31.20;;;;;;5064836;28;20554;-65
2022/03/03 04:48:59;;;;;;;61.40;21.00;;;-0.50;31.10;;;;;;5067414;28;20488;-66
2022/03/03 04:51:26;;;;;;;64.00;21.57;;;-0.50;31.10;;;;;;5066849;28;20465;-66
2022/03/03 04:53:52;;;;;;;62.87;21.63;;;-0.50;31.00;;;;;;5068024;28;20461;-66
2022/03/03 04:56:21;;;;;;;61.87;20.70;;;-0.50;31.10;;;;;;5066973;28;20465;-67
2022/03/03 04:58:49;;;;;;;62.47;21.03;;;-0.50;31.10;;;;;;5067439;28;21008;-65
2022/03/03 05:01:16;;;;;;;61.30;21.00;;;-0.50;31.10;;;;;;5065571;28;20519;-67
2022/03/03 05:03:43;;;;;;;62.50;22.07;;;-0.60;31.10;;;;;;5067065;28;20458;-65
2022/03/03 05:06:10;;;;;;;62.27;21.73;;;-0.50;31.00;;;;;;5065737;28;20489;-65
2022/03/03 05:08:37;;;;;;;58.87;20.53;;;-0.50;31.00;;;;;;5064849;28;20459;-66
2022/03/03 05:11:04;;;;;;;62.10;22.47;;;-0.50;31.00;;;;;;5066879;28;20453;-65
2022/03/03 05:13:32;;;;;;;60.77;22.47;;;-0.50;31.10;;;;;;5063946;28;20472;-65
2022/03/03 05:15:59;;;;;;;65.90;22.97;;;-0.60;31.70;;;;;;5067541;28;20976;-66
2022/03/03 05:18:26;;;;;;;65.70;23.07;;;-0.60;31.00;;;;;;5067719;28;20485;-65
2022/03/03 05:20:52;;;;;;;64.10;21.90;;;-0.60;31.00;;;;;;5067634;28;20971;-66
2022/03/03 05:23:19;;;;;;;63.43;21.13;;;-0.60;31.10;;;;;;5066578;28;20957;-65
2022/03/03 05:25:46;;;;;;;64.73;23.30;;;-0.60;31.30;;;;;;5067793;28;20875;-66
2022/03/03 05:28:13;;;;;;;62.47;22.47;;;-0.60;31.20;;;;;;5067838;28;20478;-66
2022/03/03 05:30:42;;;;;;;61.23;21.30;;;-0.60;31.20;;;;;;5066962;28;20552;-64
2022/03/03 05:33:09;;;;;;;62.60;21.90;;;-0.60;31.20;;;;;;5068038;28;20512;-67
2022/03/03 05:35:36;;;;;;;64.23;22.93;;;-0.70;31.10;;;;;;5071190;28;20472;-66
2022/03/03 05:38:03;;;;;;;73.13;25.60;;;-0.70;31.30;;;;;;5070379;28;20488;-66
2022/03/03 05:40:31;;;;;;;73.27;24.73;;;-0.70;31.50;;;;;;5071224;28;20849;-66
2022/03/03 05:42:58;;;;;;;63.67;24.70;;;-0.60;32.20;;;;;;5069757;28;21131;-66
2022/03/03 05:45:26;;;;;;;69.47;26.27;;;-0.60;32.10;;;;;;5070489;28;20514;-66
2022/03/03 05:47:55;;;;;;;69.10;25.70;;;-0.70;32.00;;;;;;5070489;28;20547;-66
2022/03/03 05:50:21;;;;;;;73.67;27.83;;;-0.70;32.00;;;;;;5069753;28;20465;-67
2022/03/03 05:52:48;;;;;;;70.77;27.90;;;-0.70;31.90;;;;;;5069919;28;20776;-66
2022/03/03 05:55:15;;;;;;;72.57;27.70;;;-0.70;31.90;;;;;;5068461;28;20467;-65
2022/03/03 05:57:46;;;;;;;68.40;24.43;;;-0.80;31.80;;;;;;5070425;28;20483;-66
2022/03/03 06:00:15;;;;;;;61.97;21.50;;;-0.70;32.00;;;;;;5069525;28;20746;-66
2022/03/03 06:02:48;;;;;;;59.97;22.43;;;-0.80;32.00;;;;;;5069925;28;20461;-66
2022/03/03 06:05:19;;;;;;;59.23;21.87;;;-0.80;32.00;;;;;;5069166;28;20843;-66
2022/03/03 06:07:51;;;;;;;61.90;23.37;;;-0.80;32.10;;;;;;5070668;28;20499;-65
2022/03/03 06:10:22;;;;;;;66.80;24.40;;;-0.70;32.20;;;;;;5069983;28;20500;-67
2022/03/03 06:12:51;;;;;;;62.30;22.10;;;-0.60;32.30;;;;;;5070796;28;20442;-65
2022/03/03 06:15:22;;;;;;;60.27;21.27;;;-0.50;32.50;;;;;;5068940;28;20490;-65
2022/03/03 06:17:49;;;;;;;65.70;22.90;;;-0.40;32.70;;;;;;5070313;28;20441;-65
2022/03/03 06:20:19;;;;;;;64.47;22.27;;;-0.30;32.90;;;;;;5070585;28;20550;-66
2022/03/03 06:22:45;;;;;;;59.60;21.43;;;-0.10;33.20;;;;;;5068798;28;20465;-67
2022/03/03 06:25:13;;;;;;;62.57;22.50;;;0.10;33.30;;;;;;5068238;28;20457;-65
2022/03/03 06:27:40;;;;;;;64.73;21.70;;;0.30;33.20;;;;;;5062196;23;20951;-60
2022/03/03 06:30:08;;;;;;;61.27;22.30;;;0.50;33.20;;;;;;5031157;28;20467;-60
2022/03/03 06:32:34;;;;;;;58.47;21.23;;;0.60;32.90;;;;;;5021315;28;20476;-61
2022/03/03 06:35:01;;;;;;;58.60;21.47;;;0.90;32.20;;;;;;5025605;28;20542;-59
2022/03/03 06:37:29;;;;;;;60.00;23.80;;;1.30;31.00;;;;;;5032607;28;20463;-59
2022/03/03 06:39:56;;;;;;;61.87;21.63;;;1.80;29.50;;;;;;5023808;28;20505;-59
2022/03/03 06:42:23;;;;;;;56.30;19.90;;;2.40;27.80;;;;;;5022357;28;20467;-59
2022/03/03 06:44:49;;;;;;;56.70;22.80;;;3.10;26.50;;;;;;5026308;28;20463;-62
2022/03/03 06:47:16;;;;;;;58.43;21.00;;;3.70;25.00;;;;;;5021874;28;20461;-60
2022/03/03 06:49:43;;;;;;;57.60;22.20;;;4.00;23.80;;;;;;5017549;28;20487;-61
2022/03/03 06:52:14;;;;;;;55.00;21.20;;;4.10;23.30;;;;;;5028842;28;20502;-61
2022/03/03 06:54:44;;;;;;;54.53;19.50;;;4.30;22.90;;;;;;5025945;28;20854;-59
2022/03/03 06:57:12;;;;;;;56.67;19.73;;;4.50;22.40;;;;;;5017849;28;20501;-60
2022/03/03 06:59:40;;;;;;;60.57;22.00;;;4.90;21.30;;;;;;5027404;28;20575;-60
2022/03/03 07:02:07;;;;;;;55.70;21.30;;;5.30;20.30;;;;;;5018224;28;20491;-60
2022/03/03 07:04:34;;;;;;;54.93;20.37;;;5.80;19.40;;;;;;5022026;28;20464;-61
2022/03/03 07:07:01;;;;;;;56.53;21.07;;;6.20;18.90;;;;;;5024858;28;20471;-60
2022/03/03 07:09:30;;;;;;;57.90;22.03;;;6.50;18.30;;;;;;5013049;28;20484;-61
2022/03/03 07:12:00;;;;;;;55.57;20.93;;;6.80;17.70;;;;;;5025065;28;20463;-63
2022/03/03 07:14:27;;;;;;;53.67;21.23;;;7.10;17.40;;;;;;5017023;28;20466;-60
2022/03/03 07:17:01;;;;;;;56.60;21.47;;;7.30;17.40;;;;;;5023106;28;20462;-62
2022/03/03 07:19:50;;;;;;;59.37;21.03;;;7.50;17.60;;;;;;5035549;28;20491;-61
2022/03/03 07:22:20;;;;;;;52.60;20.87;;;7.70;17.80;;;;;;5025607;28;20988;-61
2022/03/03 07:24:50;;;;;;;53.37;20.27;;;7.90;17.30;;;;;;5028901;28;20463;-61
2022/03/03 07:27:21;;;;;;;56.57;23.33;;;8.10;17.00;;;;;;5023698;28;20474;-61
2022/03/03 07:29:55;;;;;;;56.60;21.63;;;8.40;15.90;;;;;;5018348;28;20478;-62
2022/03/03 07:32:34;;;;;;;52.83;19.77;;;8.80;15.10;;;;;;5024004;28;20480;-59
2022/03/03 07:35:06;;;;;;;52.37;20.60;;;9.50;13.60;;;;;;5014801;28;20514;-61
2022/03/03 07:37:40;;;;;;;52.13;21.03;;;10.20;12.10;;;;;;5016066;28;20562;-62
2022/03/03 07:40:08;;;;;;;53.83;21.73;;;10.60;10.90;;;;;;5018942;28;20500;-59
2022/03/03 07:42:37;;;;;;;50.33;20.87;;;10.80;10.30;;;;;;5023478;28;20555;-62
2022/03/03 07:45:05;;;;;;;51.73;21.57;;;11.10;9.60;;;;;;5021271;28;20467;-60
2022/03/03 07:47:32;;;;;;;56.60;20.67;;;11.30;8.90;;;;;;5022762;28;21161;-63
2022/03/03 07:49:59;;;;;;;56.63;22.60;;;11.70;8.50;;;;;;5025759;28;20451;-59
2022/03/03 07:52:28;;;;;;;50.70;20.73;;;12.60;7.30;;;;;;5020753;28;20467;-61
2022/03/03 07:54:55;;;;;;;52.00;20.23;;;13.60;6.00;;;;;;5026116;28;20461;-61
2022/03/03 07:57:25;;;;;;;50.10;21.60;;;14.80;4.50;;;;;;5025715;28;20466;-60
2022/03/03 08:00:02;;;;;;;47.90;19.27;;;15.80;3.20;;;;;;5018574;28;20510;-62
2022/03/03 08:02:32;;;;;;;51.30;20.00;;;16.70;2.10;;;;;;5024658;28;20476;-63
2022/03/03 08:05:01;;;;;;;48.50;21.07;;;17.70;1.00;;;;;;5019254;28;20466;-63
2022/03/03 08:07:28;;;;;;;46.00;20.80;;;18.90;1.00;;;;;;5024141;28;20559;-63
2022/03/03 08:10:00;;;;;;;53.47;23.97;;;20.20;1.00;;;;;;5012142;28;20502;-62
2022/03/03 08:12:29;;;;;;;47.67;21.63;;;21.20;1.00;;;;;;5023811;28;20529;-62
2022/03/03 08:14:58;;;;;;;46.20;21.73;;;22.30;1.00;;;;;;5018204;28;20468;-63
2022/03/03 08:17:26;;;;;;;49.30;21.50;;;23.50;1.00;;;;;;5018904;28;20503;-63
2022/03/03 08:19:55;;;;;;;45.33;21.27;;;24.70;1.00;;;;;;5019879;28;20487;-61
2022/03/03 08:22:24;;;;;;;48.00;22.10;;;25.50;1.00;;;;;;5015169;28;20466;-64
2022/03/03 08:24:54;;;;;;;46.10;20.00;;;26.50;1.00;;;;;;5019604;28;20463;-62
2022/03/03 08:27:22;;;;;;;43.57;21.00;;;27.40;1.00;;;;;;5016731;28;20793;-60
2022/03/03 08:29:50;;;;;;;43.40;20.80;;;28.00;1.00;;;;;;5018523;28;20497;-61
2022/03/03 08:32:20;;;;;;;45.07;21.10;;;28.30;1.00;;;;;;5020786;28;20504;-63
2022/03/03 08:34:58;;;;;;;41.57;19.47;;;28.70;1.00;;;;;;5019866;28;20455;-63
2022/03/03 08:37:30;;;;;;;43.20;21.53;;;29.40;1.00;;;;;;5017564;28;20471;-62
2022/03/03 08:39:59;;;;;;;45.60;21.13;;;29.90;1.00;;;;;;5023893;28;20486;-61
2022/03/03 08:42:30;;;;;;;42.80;20.30;;;30.40;1.00;;;;;;5018135;28;20473;-62
2022/03/03 08:45:02;;;;;;;43.17;21.27;;;30.10;1.00;;;;;;5020298;28;20467;-63
2022/03/03 08:47:31;;;;;;;42.00;21.23;;;30.00;1.00;;;;;;5020392;28;20464;-64
2022/03/03 08:50:00;;;;;;;43.97;20.73;;;30.20;1.00;;;;;;5028852;28;20462;-64
2022/03/03 08:52:27;;;;;;;41.07;20.57;;;30.40;1.00;;;;;;5025812;28;20467;-63
2022/03/03 08:54:54;;;;;;;38.70;19.37;;;30.80;1.00;;;;;;5025619;28;20459;-62
2022/03/03 08:57:21;;;;;;;43.37;20.60;;;31.10;1.00;;;;;;5019047;28;20476;-62
2022/03/03 08:59:48;;;;;;;42.10;20.13;;;31.00;1.00;;;;;;5019585;28;21055;-63
2022/03/03 09:02:17;;;;;;;44.57;21.10;;;31.40;1.00;;;;;;5019435;28;20479;-61
2022/03/03 09:04:46;;;;;;;42.10;20.27;;;32.10;1.00;;;;;;5026683;28;20474;-64
2022/03/03 09:07:13;;;;;;;40.67;20.23;;;32.70;1.00;;;;;;5022023;28;20490;-61
2022/03/03 09:09:41;;;;;;;43.00;19.30;;;33.10;1.00;;;;;;5021066;28;20559;-61
2022/03/03 09:12:08;;;;;;;41.37;19.17;;;33.40;1.00;;;;;;5024087;28;20455;-61
2022/03/03 09:14:35;;;;;;;39.57;18.20;;;33.90;1.00;;;;;;5020974;28;20518;-62
2022/03/03 09:17:02;;;;;;;39.90;19.67;;;34.30;1.00;;;;;;5029953;28;20466;-64
2022/03/03 09:19:29;;;;;;;40.33;19.93;;;34.50;1.00;;;;;;5016866;28;20488;-63
2022/03/03 09:21:57;;;;;;;37.83;18.70;;;34.80;1.00;;;;;;5022148;28;20852;-65
2022/03/03 09:24:24;;;;;;;40.00;17.83;;;35.30;1.00;;;;;;5025292;28;20468;-63
2022/03/03 09:26:51;;;;;;;38.97;18.83;;;35.80;1.00;;;;;;5026276;28;20972;-63
2022/03/03 09:29:19;;;;;;;40.67;19.00;;;36.00;1.00;;;;;;5031569;28;20636;-61
2022/03/03 09:31:46;;;;;;;39.80;19.03;;;36.30;1.00;;;;;;5028635;28;20905;-63
2022/03/03 09:34:14;;;;;;;38.53;19.80;;;36.80;1.00;;;;;;5023360;28;20473;-62
2022/03/03 09:36:40;;;;;;;37.13;19.50;;;36.90;1.00;;;;;;5033303;28;20462;-61
2022/03/03 09:39:09;;;;;;;42.70;20.70;;;36.70;1.00;;;;;;5032503;28;20667;-62
2022/03/03 09:41:36;;;;;;;38.03;19.33;;;36.80;1.00;;;;;;5029699;28;20933;-63
2022/03/03 09:44:02;;;;;;;39.40;20.17;;;37.00;1.00;;;;;;5025828;28;20473;-61
2022/03/03 09:46:30;;;;;;;40.10;18.03;;;37.20;1.00;;;;;;5025412;28;20479;-63
2022/03/03 09:48:56;;;;;;;37.93;17.93;;;37.50;1.00;;;;;;5028209;28;20490;-62
2022/03/03 09:51:23;;;;;;;36.80;19.07;;;37.50;1.00;;;;;;5030374;28;20474;-62
2022/03/03 09:53:51;;;;;;;35.43;18.90;;;37.30;1.00;;;;;;5018484;28;20467;-63
2022/03/03 09:56:19;;;;;;;38.57;19.03;;;37.40;1.00;;;;;;5021217;28;21134;-63
2022/03/03 09:58:46;;;;;;;38.30;20.00;;;37.80;1.00;;;;;;5025615;28;20491;-63
2022/03/03 10:01:13;;;;;;;36.60;19.40;;;38.10;1.00;;;;;;5027153;28;20475;-62
2022/03/03 10:03:41;;;;;;;38.37;20.73;;;38.10;1.00;;;;;;5027513;28;21103;-63
2022/03/03 10:06:11;;;;;;;37.13;18.87;;;37.90;1.00;;;;;;5025689;28;21036;-62
2022/03/03 10:08:38;;;;;;;38.13;19.03;;;38.00;1.00;;;;;;5026526;28;20491;-62
2022/03/03 10:11:05;;;;;;;38.80;19.60;;;38.20;1.00;;;;;;5021722;28;20470;-61
2022/03/03 10:13:48;;;;;;;33.53;16.20;;;38.60;1.00;;;;;;5025102;28;20494;-63
2022/03/03 10:16:23;;;;;;;35.90;17.87;;;38.80;1.00;;;;;;5023747;28;20477;-62
2022/03/03 10:19:07;;;;;;;35.93;18.57;;;39.40;1.00;;;;;;5023030;28;20489;-63
2022/03/03 10:21:37;;;;;;;38.83;18.83;;;39.40;1.00;;;;;;5026185;28;20984;-62
2022/03/03 10:24:16;;;;;;;37.13;19.27;;;39.40;1.00;;;;;;5034462;28;20474;-60
2022/03/03 10:26:44;;;;;;;35.97;18.30;;;39.40;1.00;;;;;;5027314;28;20470;-62
2022/03/03 10:29:20;;;;;;;36.03;18.67;;;39.20;1.00;;;;;;5026592;28;20570;-63
2022/03/03 10:31:48;;;;;;;35.03;18.70;;;39.20;1.00;;;;;;5023779;28;20909;-62
2022/03/03 10:34:19;;;;;;;35.27;18.53;;;39.10;1.00;;;;;;5019823;28;20509;-63
2022/03/03 10:36:56;;;;;;;38.37;19.20;;;39.30;1.00;;;;;;5023283;28;20462;-62
2022/03/03 10:39:23;;;;;;;38.37;18.27;;;39.00;1.00;;;;;;5026985;28;20486;-63
2022/03/03 10:41:54;;;;;;;38.73;18.40;;;39.00;1.00;;;;;;5024363;28;20501;-65
2022/03/03 10:44:24;;;;;;;38.73;18.60;;;39.00;1.00;;;;;;5023235;28;20465;-61
2022/03/03 10:47:07;;;;;;;36.33;19.10;;;39.00;1.00;;;;;;5021010;28;20466;-60
2022/03/03 10:49:35;;;;;;;37.57;18.53;;;38.90;1.00;;;;;;5024883;28;20482;-64
2022/03/03 10:52:16;;;;;;;35.90;17.97;;;38.80;1.00;;;;;;5016484;28;20463;-63
2022/03/03 10:55:02;;;;;;;41.63;18.50;;;38.50;1.00;;;;;;5015779;28;20474;-62
2022/03/03 10:57:34;;;;;;;38.20;19.10;;;38.50;1.00;;;;;;5024792;28;20872;-61
2022/03/03 11:00:06;;;;;;;36.10;17.97;;;38.40;1.00;;;;;;5030542;28;20494;-60
2022/03/03 11:02:34;;;;;;;37.70;19.77;;;38.40;1.00;;;;;;5019523;28;20593;-60
2022/03/03 11:05:02;;;;;;;39.43;18.50;;;38.00;1.00;;;;;;5024956;28;20857;-61
2022/03/03 11:07:30;;;;;;;35.30;18.07;;;37.70;1.00;;;;;;5026470;28;20450;-60
2022/03/03 11:09:57;;;;;;;39.03;18.20;;;37.50;1.00;;;;;;5023238;28;20462;-64
2022/03/03 11:12:27;;;;;;;36.80;19.03;;;37.20;1.00;;;;;;5025429;28;20542;-63
2022/03/03 11:14:55;;;;;;;38.90;19.27;;;37.20;1.00;;;;;;5021449;28;20472;-63
2022/03/03 11:17:24;;;;;;;40.13;18.87;;;37.10;1.00;;;;;;5026367;28;21078;-63
2022/03/03 11:19:55;;;;;;;37.90;19.37;;;37.00;1.00;;;;;;5021563;28;20513;-62
2022/03/03 11:22:22;;;;;;;36.70;18.90;;;36.90;1.00;;;;;;5027141;28;20533;-63
2022/03/03 11:24:50;;;;;;;38.20;19.10;;;36.50;1.00;;;;;;5018845;28;20474;-64
2022/03/03 11:27:17;;;;;;;36.50;18.30;;;36.30;1.00;;;;;;5019143;28;20483;-62
2022/03/03 11:30:05;;;;;;;37.63;18.93;;;36.10;1.00;;;;;;5020629;28;20816;-63
2022/03/03 11:32:33;;;;;;;39.03;19.03;;;35.50;1.00;;;;;;5017668;28;20499;-59
2022/03/03 11:35:07;;;;;;;39.57;18.97;;;35.40;1.00;;;;;;5024585;28;20466;-63
2022/03/03 11:37:40;;;;;;;38.60;17.50;;;35.20;1.00;;;;;;5017851;28;21015;-63
2022/03/03 11:40:07;;;;;;;36.40;16.33;;;34.70;1.00;;;;;;5024440;28;21008;-63
2022/03/03 11:42:37;;;;;;;37.57;18.70;;;34.00;1.00;;;;;;5020496;28;20841;-62
2022/03/03 11:45:31;;;;;;;39.20;18.97;;;33.00;1.00;;;;;;5020163;28;20517;-62
2022/03/03 11:48:12;;;;;;;38.97;17.73;;;32.10;1.00;;;;;;5021032;28;20483;-63
2022/03/03 11:50:39;;;;;;;40.30;18.60;;;31.30;1.00;;;;;;5019169;28;20463;-61
2022/03/03 11:53:19;;;;;;;39.07;18.30;;;30.80;1.00;;;;;;5021787;28;20474;-62
2022/03/03 11:55:56;;;;;;;40.90;18.90;;;30.40;1.00;;;;;;5033363;28;20545;-61
2022/03/03 11:58:27;;;;;;;42.00;18.33;;;30.10;1.00;;;;;;5027425;28;20479;-60
2022/03/03 12:01:09;;;;;;;42.30;18.80;;;29.80;1.00;;;;;;5025374;28;20638;-62
2022/03/03 12:04:14;;;;;;;40.63;18.20;;;29.40;1.00;;;;;;5018842;28;20467;-62
2022/03/03 12:06:45;;;;;;;40.00;18.40;;;28.70;1.00;;;;;;4978401;28;20835;-59
2022/03/03 12:09:20;;;;;;;40.90;18.90;;;28.20;1.00;;;;;;4978092;28;20580;-61
2022/03/03 12:11:47;;;;;;;41.40;17.87;;;27.60;1.00;;;;;;5002793;28;20471;-62
2022/03/03 12:14:31;;;;;;;39.63;16.90;;;27.30;1.00;;;;;;5021055;28;20462;-63
2022/03/03 12:17:31;;;;;;;41.80;17.77;;;26.90;1.00;;;;;;5023642;28;20474;-63
2022/03/03 12:20:34;;;;;;;42.40;18.83;;;26.50;1.00;;;;;;5025510;28;20518;-64
2022/03/03 12:23:12;;;;;;;41.33;18.60;;;26.40;1.00;;;;;;5030504;28;20470;-61
2022/03/03 12:25:59;;;;;;;44.50;18.83;;;26.40;1.00;;;;;;5020781;28;20459;-60
2022/03/03 12:28:27;;;;;;;41.97;18.10;;;26.50;1.00;;;;;;5025677;28;20483;-61
2022/03/03 12:30:55;;;;;;;41.67;18.07;;;26.50;1.00;;;;;;5016852;28;20464;-62
2022/03/03 12:33:23;;;;;;;41.97;19.80;;;26.30;1.00;;;;;;5017907;28;20825;-61
2022/03/03 12:35:53;;;;;;;45.17;19.10;;;26.10;1.00;;;;;;5016227;28;20456;-62
2022/03/03 12:38:20;;;;;;;45.23;19.33;;;26.00;1.00;;;;;;5020429;28;20497;-61
2022/03/03 12:40:47;;;;;;;42.47;18.50;;;25.70;1.00;;;;;;5022457;28;20471;-60
2022/03/03 12:43:16;;;;;;;43.53;19.00;;;25.30;1.00;;;;;;5026157;28;20475;-62
2022/03/03 12:45:44;;;;;;;44.67;18.77;;;24.70;1.00;;;;;;5016939;28;20471;-60